sensor_id;sensor_type;location;lat;lon;timestamp;temperature;humidity
21811;DHT22;11067;48.788;9.208;2023-02-12T00:01:11;5.90;99.90
21811;DHT22;11067;48.788;9.208;2023-02-12T00:03:37;5.80;99.90
21811;DHT22;11067;48.788;9.208;2023-02-12T00:06:04;5.80;99.90
21811;DHT22;11067;48.788;9.208;2023-02-12T00:08:30;5.90;99.90
21811;DHT22;11067;48.788;9.208;2023-02-12T00:10:55;5.90;99.90
21811;DHT22;11067;48.788;9.208;2023-02-12T00:13:21;5.90;99.90
21811;DHT22;11067;48.788;9.208;2023-02-12T00:15:46;5.90;99.90
21811;DHT22;11067;48.788;9.208;2023-02-12T00:18:12;5.80;99.90
21811;DHT22;11067;48.788;9.208;2023-02-12T00:20:38;5.80;99.90
21811;DHT22;11067;48.788;9.208;2023-02-12T00:23:05;5.80;99.90
21811;DHT22;11067;48.788;9.208;2023-02-12T00:25:30;5.80;99.90
21811;DHT22;11067;48.788;9.208;2023-02-12T00:27:56;5.70;99.90
21811;DHT22;11067;48.788;9.208;2023-02-12T00:30:22;5.70;99.90
21811;DHT22;11067;48.788;9.208;2023-02-12T00:32:47;5.70;99.90
21811;DHT22;11067;48.788;9.208;2023-02-12T00:35:13;5.70;99.90
21811;DHT22;11067;48.788;9.208;2023-02-12T00:37:39;5.70;99.90
21811;DHT22;11067;48.788;9.208;2023-02-12T00:40:05;5.70;99.90
21811;DHT22;11067;48.788;9.208;2023-02-12T00:42:31;5.70;99.90
21811;DHT22;11067;48.788;9.208;2023-02-12T00:44:56;5.70;99.90
21811;DHT22;11067;48.788;9.208;2023-02-12T00:47:22;5.70;99.90
21811;DHT22;11067;48.788;9.208;2023-02-12T00:49:47;5.70;99.90
21811;DHT22;11067;48.788;9.208;2023-02-12T00:52:13;5.70;99.90
21811;DHT22;11067;48.788;9.208;2023-02-12T00:54:38;5.70;99.90
21811;DHT22;11067;48.788;9.208;2023-02-12T00:57:04;5.70;99.90
21811;DHT22;11067;48.788;9.208;2023-02-12T00:59:29;5.70;99.90
21811;DHT22;11067;48.788;9.208;2023-02-12T01:01:55;5.70;99.90
21811;DHT22;11067;48.788;9.208;2023-02-12T01:04:21;5.70;99.90
21811;DHT22;11067;48.788;9.208;2023-02-12T01:06:46;5.70;99.90
21811;DHT22;11067;48.788;9.208;2023-02-12T01:09:12;5.80;99.90
21811;DHT22;11067;48.788;9.208;2023-02-12T01:11:40;5.70;99.90
21811;DHT22;11067;48.788;9.208;2023-02-12T01:14:06;5.70;99.90
21811;DHT22;11067;48.788;9.208;2023-02-12T01:16:31;5.80;99.90
21811;DHT22;11067;48.788;9.208;2023-02-12T01:18:58;5.70;99.90
21811;DHT22;11067;48.788;9.208;2023-02-12T01:21:28;5.80;99.90
21811;DHT22;11067;48.788;9.208;2023-02-12T01:23:55;5.80;99.90
21811;DHT22;11067;48.788;9.208;2023-02-12T01:26:21;5.70;99.90
21811;DHT22;11067;48.788;9.208;2023-02-12T01:28:56;5.70;99.90
21811;DHT22;11067;48.788;9.208;2023-02-12T01:31:24;5.60;99.90
21811;DHT22;11067;48.788;9.208;2023-02-12T01:33:52;5.60;99.90
21811;DHT22;11067;48.788;9.208;2023-02-12T01:36:18;5.50;99.90
21811;DHT22;11067;48.788;9.208;2023-02-12T01:38:44;5.60;99.90
21811;DHT22;11067;48.788;9.208;2023-02-12T01:41:13;5.70;99.90
21811;DHT22;11067;48.788;9.208;2023-02-12T01:43:39;5.60;99.90
21811;DHT22;11067;48.788;9.208;2023-02-12T01:46:06;5.60;99.90
21811;DHT22;11067;48.788;9.208;2023-02-12T01:48:37;5.60;99.90
21811;DHT22;11067;48.788;9.208;2023-02-12T01:51:04;5.50;99.90
21811;DHT22;11067;48.788;9.208;2023-02-12T01:53:40;5.50;99.90
21811;DHT22;11067;48.788;9.208;2023-02-12T01:56:07;5.50;99.90
21811;DHT22;11067;48.788;9.208;2023-02-12T01:58:38;5.50;99.90
21811;DHT22;11067;48.788;9.208;2023-02-12T02:01:09;5.50;99.90
21811;DHT22;11067;48.788;9.208;2023-02-12T02:03:37;5.60;99.90
21811;DHT22;11067;48.788;9.208;2023-02-12T02:06:15;5.60;99.90
21811;DHT22;11067;48.788;9.208;2023-02-12T02:08:42;5.70;99.90
21811;DHT22;11067;48.788;9.208;2023-02-12T02:11:08;5.70;99.90
21811;DHT22;11067;48.788;9.208;2023-02-12T02:13:54;5.70;99.90
21811;DHT22;11067;48.788;9.208;2023-02-12T02:16:42;5.60;99.90
21811;DHT22;11067;48.788;9.208;2023-02-12T02:25:03;5.60;99.90
21811;DHT22;11067;48.788;9.208;2023-02-12T02:31:06;5.50;99.90
21811;DHT22;11067;48.788;9.208;2023-02-12T02:33:58;5.50;99.90
21811;DHT22;11067;48.788;9.208;2023-02-12T02:36:52;5.50;99.90
21811;DHT22;11067;48.788;9.208;2023-02-12T02:39:47;5.50;99.90
21811;DHT22;11067;48.788;9.208;2023-02-12T02:42:38;5.60;99.90
21811;DHT22;11067;48.788;9.208;2023-02-12T02:45:15;5.60;99.90
21811;DHT22;11067;48.788;9.208;2023-02-12T02:48:14;5.60;99.90
21811;DHT22;11067;48.788;9.208;2023-02-12T02:50:42;5.50;99.90
21811;DHT22;11067;48.788;9.208;2023-02-12T02:53:15;5.50;99.90
21811;DHT22;11067;48.788;9.208;2023-02-12T02:55:46;5.50;99.90
21811;DHT22;11067;48.788;9.208;2023-02-12T02:58:17;5.40;99.90
21811;DHT22;11067;48.788;9.208;2023-02-12T03:01:00;5.40;99.90
21811;DHT22;11067;48.788;9.208;2023-02-12T03:06:15;5.50;99.90
21811;DHT22;11067;48.788;9.208;2023-02-12T03:08:50;5.50;99.90
21811;DHT22;11067;48.788;9.208;2023-02-12T03:11:28;5.50;99.90
21811;DHT22;11067;48.788;9.208;2023-02-12T03:13:58;5.40;99.90
21811;DHT22;11067;48.788;9.208;2023-02-12T03:16:31;5.30;99.90
21811;DHT22;11067;48.788;9.208;2023-02-12T03:19:09;5.30;99.90
21811;DHT22;11067;48.788;9.208;2023-02-12T03:21:45;5.30;99.90
21811;DHT22;11067;48.788;9.208;2023-02-12T03:27:02;5.30;99.90
21811;DHT22;11067;48.788;9.208;2023-02-12T03:29:29;5.30;99.90
21811;DHT22;11067;48.788;9.208;2023-02-12T03:34:52;5.30;99.90
21811;DHT22;11067;48.788;9.208;2023-02-12T03:37:28;5.20;99.90
21811;DHT22;11067;48.788;9.208;2023-02-12T03:40:34;5.30;99.90
21811;DHT22;11067;48.788;9.208;2023-02-12T03:43:20;5.20;99.90
21811;DHT22;11067;48.788;9.208;2023-02-12T03:45:59;5.30;99.90
21811;DHT22;11067;48.788;9.208;2023-02-12T03:53:51;5.40;99.90
21811;DHT22;11067;48.788;9.208;2023-02-12T03:56:23;5.40;99.90
21811;DHT22;11067;48.788;9.208;2023-02-12T03:58:49;5.40;99.90
21811;DHT22;11067;48.788;9.208;2023-02-12T04:01:15;5.40;99.90
21811;DHT22;11067;48.788;9.208;2023-02-12T04:03:41;5.40;99.90
21811;DHT22;11067;48.788;9.208;2023-02-12T04:06:22;5.30;99.90
21811;DHT22;11067;48.788;9.208;2023-02-12T04:08:50;5.20;99.90
21811;DHT22;11067;48.788;9.208;2023-02-12T04:17:29;5.40;99.90
21811;DHT22;11067;48.788;9.208;2023-02-12T04:25:55;5.30;99.90
21811;DHT22;11067;48.788;9.208;2023-02-12T04:31:24;5.20;99.90
21811;DHT22;11067;48.788;9.208;2023-02-12T04:34:04;5.10;99.90
21811;DHT22;11067;48.788;9.208;2023-02-12T04:36:34;5.10;99.90
21811;DHT22;11067;48.788;9.208;2023-02-12T04:39:10;5.10;99.90
21811;DHT22;11067;48.788;9.208;2023-02-12T04:41:38;5.10;99.90
21811;DHT22;11067;48.788;9.208;2023-02-12T04:44:18;5.10;99.90
21811;DHT22;11067;48.788;9.208;2023-02-12T04:46:44;5.10;99.90
21811;DHT22;11067;48.788;9.208;2023-02-12T04:49:14;5.10;99.90
21811;DHT22;11067;48.788;9.208;2023-02-12T04:51:40;5.10;99.90
21811;DHT22;11067;48.788;9.208;2023-02-12T04:54:06;5.10;99.90
21811;DHT22;11067;48.788;9.208;2023-02-12T04:56:31;5.10;99.90
21811;DHT22;11067;48.788;9.208;2023-02-12T04:58:57;5.00;99.90
21811;DHT22;11067;48.788;9.208;2023-02-12T05:01:23;5.00;99.90
21811;DHT22;11067;48.788;9.208;2023-02-12T05:03:50;5.00;99.90
21811;DHT22;11067;48.788;9.208;2023-02-12T05:06:16;5.10;99.90
21811;DHT22;11067;48.788;9.208;2023-02-12T05:08:42;5.00;99.90
21811;DHT22;11067;48.788;9.208;2023-02-12T05:11:10;5.00;99.90
21811;DHT22;11067;48.788;9.208;2023-02-12T05:13:35;5.00;99.90
21811;DHT22;11067;48.788;9.208;2023-02-12T05:16:05;5.00;99.90
21811;DHT22;11067;48.788;9.208;2023-02-12T05:18:31;5.00;99.90
21811;DHT22;11067;48.788;9.208;2023-02-12T05:20:58;5.00;99.90
21811;DHT22;11067;48.788;9.208;2023-02-12T05:23:28;5.00;99.90
21811;DHT22;11067;48.788;9.208;2023-02-12T05:25:54;5.10;99.90
21811;DHT22;11067;48.788;9.208;2023-02-12T05:28:22;5.10;99.90
21811;DHT22;11067;48.788;9.208;2023-02-12T05:30:47;5.10;99.90
21811;DHT22;11067;48.788;9.208;2023-02-12T05:33:13;5.10;99.90
21811;DHT22;11067;48.788;9.208;2023-02-12T05:35:38;5.10;99.90
21811;DHT22;11067;48.788;9.208;2023-02-12T05:38:04;5.10;99.90
21811;DHT22;11067;48.788;9.208;2023-02-12T05:40:30;5.10;99.90
21811;DHT22;11067;48.788;9.208;2023-02-12T05:42:55;5.00;99.90
21811;DHT22;11067;48.788;9.208;2023-02-12T05:45:21;5.00;99.90
21811;DHT22;11067;48.788;9.208;2023-02-12T05:47:52;5.00;99.90
21811;DHT22;11067;48.788;9.208;2023-02-12T05:50:18;5.00;99.90
21811;DHT22;11067;48.788;9.208;2023-02-12T05:52:43;5.10;99.90
21811;DHT22;11067;48.788;9.208;2023-02-12T05:55:09;5.10;99.90
21811;DHT22;11067;48.788;9.208;2023-02-12T05:57:34;5.00;99.90
21811;DHT22;11067;48.788;9.208;2023-02-12T06:00:00;5.00;99.90
21811;DHT22;11067;48.788;9.208;2023-02-12T06:02:25;5.10;99.90
21811;DHT22;11067;48.788;9.208;2023-02-12T06:04:53;5.10;99.90
21811;DHT22;11067;48.788;9.208;2023-02-12T06:07:18;5.00;99.90
21811;DHT22;11067;48.788;9.208;2023-02-12T06:09:44;5.10;99.90
21811;DHT22;11067;48.788;9.208;2023-02-12T06:12:10;5.10;99.90
21811;DHT22;11067;48.788;9.208;2023-02-12T06:14:35;5.00;99.90
21811;DHT22;11067;48.788;9.208;2023-02-12T06:17:01;5.00;99.90
21811;DHT22;11067;48.788;9.208;2023-02-12T06:19:27;5.00;99.90
21811;DHT22;11067;48.788;9.208;2023-02-12T06:21:52;5.00;99.90
21811;DHT22;11067;48.788;9.208;2023-02-12T06:24:18;5.10;99.90
21811;DHT22;11067;48.788;9.208;2023-02-12T06:26:44;5.00;99.90
21811;DHT22;11067;48.788;9.208;2023-02-12T06:29:10;4.90;99.90
21811;DHT22;11067;48.788;9.208;2023-02-12T06:31:36;4.90;99.90
21811;DHT22;11067;48.788;9.208;2023-02-12T06:34:04;4.90;99.90
21811;DHT22;11067;48.788;9.208;2023-02-12T06:36:30;4.90;99.90
21811;DHT22;11067;48.788;9.208;2023-02-12T06:38:56;5.00;99.90
21811;DHT22;11067;48.788;9.208;2023-02-12T06:41:22;4.90;99.90
21811;DHT22;11067;48.788;9.208;2023-02-12T06:43:48;5.00;99.90
21811;DHT22;11067;48.788;9.208;2023-02-12T06:46:14;5.00;99.90
21811;DHT22;11067;48.788;9.208;2023-02-12T06:48:40;5.00;99.90
21811;DHT22;11067;48.788;9.208;2023-02-12T06:51:10;5.00;99.90
21811;DHT22;11067;48.788;9.208;2023-02-12T06:53:36;5.00;99.90
21811;DHT22;11067;48.788;9.208;2023-02-12T06:56:03;5.00;99.90
21811;DHT22;11067;48.788;9.208;2023-02-12T06:58:29;5.00;99.90
21811;DHT22;11067;48.788;9.208;2023-02-12T07:00:54;5.10;99.90
21811;DHT22;11067;48.788;9.208;2023-02-12T07:03:20;5.00;99.90
21811;DHT22;11067;48.788;9.208;2023-02-12T07:05:45;5.10;99.90
21811;DHT22;11067;48.788;9.208;2023-02-12T07:08:13;5.10;99.90
21811;DHT22;11067;48.788;9.208;2023-02-12T07:10:38;5.00;99.90
21811;DHT22;11067;48.788;9.208;2023-02-12T07:13:04;5.10;99.90
21811;DHT22;11067;48.788;9.208;2023-02-12T07:15:30;5.00;99.90
21811;DHT22;11067;48.788;9.208;2023-02-12T07:17:55;5.00;99.90
21811;DHT22;11067;48.788;9.208;2023-02-12T07:20:21;5.00;99.90
21811;DHT22;11067;48.788;9.208;2023-02-12T07:22:46;5.00;99.90
21811;DHT22;11067;48.788;9.208;2023-02-12T07:25:12;5.00;99.90
21811;DHT22;11067;48.788;9.208;2023-02-12T07:27:38;5.10;99.90
21811;DHT22;11067;48.788;9.208;2023-02-12T07:30:06;5.10;99.90
21811;DHT22;11067;48.788;9.208;2023-02-12T07:32:33;5.10;99.90
21811;DHT22;11067;48.788;9.208;2023-02-12T07:34:58;5.10;99.90
21811;DHT22;11067;48.788;9.208;2023-02-12T07:37:24;5.10;99.90
21811;DHT22;11067;48.788;9.208;2023-02-12T07:39:50;5.20;99.90
21811;DHT22;11067;48.788;9.208;2023-02-12T07:42:16;5.30;99.90
21811;DHT22;11067;48.788;9.208;2023-02-12T07:44:43;5.30;99.90
21811;DHT22;11067;48.788;9.208;2023-02-12T07:47:08;5.40;99.90
21811;DHT22;11067;48.788;9.208;2023-02-12T07:49:34;5.60;99.90
21811;DHT22;11067;48.788;9.208;2023-02-12T07:52:00;5.70;99.90
21811;DHT22;11067;48.788;9.208;2023-02-12T07:54:25;5.70;99.90
21811;DHT22;11067;48.788;9.208;2023-02-12T07:56:51;5.50;99.90
21811;DHT22;11067;48.788;9.208;2023-02-12T07:59:18;5.50;99.90
21811;DHT22;11067;48.788;9.208;2023-02-12T08:01:51;5.60;99.90
21811;DHT22;11067;48.788;9.208;2023-02-12T08:04:19;5.60;99.90
21811;DHT22;11067;48.788;9.208;2023-02-12T08:06:47;5.60;99.90
21811;DHT22;11067;48.788;9.208;2023-02-12T08:09:16;5.50;99.90
21811;DHT22;11067;48.788;9.208;2023-02-12T08:11:42;5.60;99.90
21811;DHT22;11067;48.788;9.208;2023-02-12T08:14:10;5.60;99.90
21811;DHT22;11067;48.788;9.208;2023-02-12T08:16:38;5.70;99.90
21811;DHT22;11067;48.788;9.208;2023-02-12T08:19:04;5.80;99.90
21811;DHT22;11067;48.788;9.208;2023-02-12T08:21:30;5.80;99.90
21811;DHT22;11067;48.788;9.208;2023-02-12T08:23:57;5.80;99.90
21811;DHT22;11067;48.788;9.208;2023-02-12T08:26:26;5.80;99.90
21811;DHT22;11067;48.788;9.208;2023-02-12T08:28:59;5.80;99.90
21811;DHT22;11067;48.788;9.208;2023-02-12T08:31:29;5.80;99.90
21811;DHT22;11067;48.788;9.208;2023-02-12T08:33:55;5.80;99.90
21811;DHT22;11067;48.788;9.208;2023-02-12T08:36:28;5.90;99.90
21811;DHT22;11067;48.788;9.208;2023-02-12T08:38:57;6.10;99.90
21811;DHT22;11067;48.788;9.208;2023-02-12T08:41:25;6.10;99.90
21811;DHT22;11067;48.788;9.208;2023-02-12T08:43:52;6.20;99.90
21811;DHT22;11067;48.788;9.208;2023-02-12T08:46:21;6.30;99.90
21811;DHT22;11067;48.788;9.208;2023-02-12T08:48:47;6.30;99.90
21811;DHT22;11067;48.788;9.208;2023-02-12T08:51:18;6.20;99.90
21811;DHT22;11067;48.788;9.208;2023-02-12T08:53:46;6.20;99.90
21811;DHT22;11067;48.788;9.208;2023-02-12T08:56:14;6.20;99.90
21811;DHT22;11067;48.788;9.208;2023-02-12T08:58:41;6.30;99.90
21811;DHT22;11067;48.788;9.208;2023-02-12T09:01:19;6.30;99.90
21811;DHT22;11067;48.788;9.208;2023-02-12T09:03:46;6.40;99.90
21811;DHT22;11067;48.788;9.208;2023-02-12T09:06:12;6.50;99.90
21811;DHT22;11067;48.788;9.208;2023-02-12T09:08:38;6.50;99.90
21811;DHT22;11067;48.788;9.208;2023-02-12T09:11:05;6.50;99.90
21811;DHT22;11067;48.788;9.208;2023-02-12T09:13:32;6.50;99.90
21811;DHT22;11067;48.788;9.208;2023-02-12T09:16:00;6.60;99.90
21811;DHT22;11067;48.788;9.208;2023-02-12T09:18:27;6.90;99.90
21811;DHT22;11067;48.788;9.208;2023-02-12T09:20:53;6.90;99.90
21811;DHT22;11067;48.788;9.208;2023-02-12T09:23:18;7.10;99.90
21811;DHT22;11067;48.788;9.208;2023-02-12T09:25:45;7.00;99.90
21811;DHT22;11067;48.788;9.208;2023-02-12T09:28:12;7.00;99.90
21811;DHT22;11067;48.788;9.208;2023-02-12T09:30:39;6.90;99.90
21811;DHT22;11067;48.788;9.208;2023-02-12T09:33:05;6.90;99.90
21811;DHT22;11067;48.788;9.208;2023-02-12T09:35:34;7.00;99.90
21811;DHT22;11067;48.788;9.208;2023-02-12T09:38:00;7.10;99.90
21811;DHT22;11067;48.788;9.208;2023-02-12T09:43:46;7.20;99.90
21811;DHT22;11067;48.788;9.208;2023-02-12T09:46:32;7.40;99.90
21811;DHT22;11067;48.788;9.208;2023-02-12T09:49:08;7.60;99.90
21811;DHT22;11067;48.788;9.208;2023-02-12T09:51:35;7.70;99.90
21811;DHT22;11067;48.788;9.208;2023-02-12T09:54:05;7.50;99.90
21811;DHT22;11067;48.788;9.208;2023-02-12T09:56:33;7.60;99.90
21811;DHT22;11067;48.788;9.208;2023-02-12T09:59:05;7.40;99.90
21811;DHT22;11067;48.788;9.208;2023-02-12T10:01:31;7.30;99.90
21811;DHT22;11067;48.788;9.208;2023-02-12T10:03:57;7.20;99.90
21811;DHT22;11067;48.788;9.208;2023-02-12T10:06:32;7.40;99.90
21811;DHT22;11067;48.788;9.208;2023-02-12T10:14:48;7.60;99.90
21811;DHT22;11067;48.788;9.208;2023-02-12T10:27:49;7.70;99.90
21811;DHT22;11067;48.788;9.208;2023-02-12T10:33:08;8.10;99.90
21811;DHT22;11067;48.788;9.208;2023-02-12T10:35:42;7.90;99.90
21811;DHT22;11067;48.788;9.208;2023-02-12T10:38:16;8.20;99.90
21811;DHT22;11067;48.788;9.208;2023-02-12T10:40:44;8.40;99.90
21811;DHT22;11067;48.788;9.208;2023-02-12T10:43:11;8.50;99.90
21811;DHT22;11067;48.788;9.208;2023-02-12T10:45:39;8.50;99.90
21811;DHT22;11067;48.788;9.208;2023-02-12T10:51:01;8.40;99.90
21811;DHT22;11067;48.788;9.208;2023-02-12T10:53:39;8.70;99.90
21811;DHT22;11067;48.788;9.208;2023-02-12T10:58:36;9.00;99.90
21811;DHT22;11067;48.788;9.208;2023-02-12T11:01:03;9.00;99.90
21811;DHT22;11067;48.788;9.208;2023-02-12T11:03:31;8.80;99.90
21811;DHT22;11067;48.788;9.208;2023-02-12T11:06:31;8.80;99.90
21811;DHT22;11067;48.788;9.208;2023-02-12T11:08:57;8.60;99.90
21811;DHT22;11067;48.788;9.208;2023-02-12T11:11:30;8.60;99.90
21811;DHT22;11067;48.788;9.208;2023-02-12T11:14:19;8.80;99.90
21811;DHT22;11067;48.788;9.208;2023-02-12T11:16:59;8.70;99.90
21811;DHT22;11067;48.788;9.208;2023-02-12T11:19:29;8.80;99.90
21811;DHT22;11067;48.788;9.208;2023-02-12T11:22:08;8.70;99.90
21811;DHT22;11067;48.788;9.208;2023-02-12T11:24:36;8.60;99.90
21811;DHT22;11067;48.788;9.208;2023-02-12T11:27:25;8.60;99.90
21811;DHT22;11067;48.788;9.208;2023-02-12T11:30:14;8.60;99.90
21811;DHT22;11067;48.788;9.208;2023-02-12T11:32:40;8.80;99.90
21811;DHT22;11067;48.788;9.208;2023-02-12T11:35:17;8.70;99.90
21811;DHT22;11067;48.788;9.208;2023-02-12T11:37:51;8.90;99.90
21811;DHT22;11067;48.788;9.208;2023-02-12T11:40:22;8.60;99.90
21811;DHT22;11067;48.788;9.208;2023-02-12T11:42:53;8.70;99.90
21811;DHT22;11067;48.788;9.208;2023-02-12T11:45:23;8.70;99.90
21811;DHT22;11067;48.788;9.208;2023-02-12T11:47:50;8.70;99.90
21811;DHT22;11067;48.788;9.208;2023-02-12T11:52:53;8.90;99.90
21811;DHT22;11067;48.788;9.208;2023-02-12T11:55:29;8.80;99.90
21811;DHT22;11067;48.788;9.208;2023-02-12T11:58:23;8.90;99.90
21811;DHT22;11067;48.788;9.208;2023-02-12T12:03:52;9.00;99.90
21811;DHT22;11067;48.788;9.208;2023-02-12T12:06:26;9.00;99.90
21811;DHT22;11067;48.788;9.208;2023-02-12T12:09:11;9.00;99.90
21811;DHT22;11067;48.788;9.208;2023-02-12T12:12:11;8.90;99.90
21811;DHT22;11067;48.788;9.208;2023-02-12T12:17:55;9.00;99.90
21811;DHT22;11067;48.788;9.208;2023-02-12T12:23:23;9.00;99.90
21811;DHT22;11067;48.788;9.208;2023-02-12T12:25:55;9.20;99.90
21811;DHT22;11067;48.788;9.208;2023-02-12T12:28:26;9.20;99.90
21811;DHT22;11067;48.788;9.208;2023-02-12T12:30:56;9.20;99.90
21811;DHT22;11067;48.788;9.208;2023-02-12T12:39:45;8.90;99.90
21811;DHT22;11067;48.788;9.208;2023-02-12T12:48:11;9.00;99.90
21811;DHT22;11067;48.788;9.208;2023-02-12T12:51:01;9.00;99.90
21811;DHT22;11067;48.788;9.208;2023-02-12T12:56:31;8.70;99.90
21811;DHT22;11067;48.788;9.208;2023-02-12T12:59:33;9.00;99.90
21811;DHT22;11067;48.788;9.208;2023-02-12T13:05:40;9.40;99.90
21811;DHT22;11067;48.788;9.208;2023-02-12T13:10:54;9.40;99.90
21811;DHT22;11067;48.788;9.208;2023-02-12T13:16:12;9.50;99.90
21811;DHT22;11067;48.788;9.208;2023-02-12T13:19:05;9.30;99.90
21811;DHT22;11067;48.788;9.208;2023-02-12T13:22:00;9.40;99.90
21811;DHT22;11067;48.788;9.208;2023-02-12T13:24:42;9.50;99.90
21811;DHT22;11067;48.788;9.208;2023-02-12T13:27:17;9.60;99.90
21811;DHT22;11067;48.788;9.208;2023-02-12T13:29:48;9.60;99.90
21811;DHT22;11067;48.788;9.208;2023-02-12T13:32:28;9.50;99.90
21811;DHT22;11067;48.788;9.208;2023-02-12T13:34:55;9.70;99.90
21811;DHT22;11067;48.788;9.208;2023-02-12T13:40:03;9.60;99.90
21811;DHT22;11067;48.788;9.208;2023-02-12T13:51:06;9.80;99.90
21811;DHT22;11067;48.788;9.208;2023-02-12T13:56:41;9.90;99.90
21811;DHT22;11067;48.788;9.208;2023-02-12T14:01:54;9.80;99.90
21811;DHT22;11067;48.788;9.208;2023-02-12T14:04:26;9.80;99.90
21811;DHT22;11067;48.788;9.208;2023-02-12T14:07:07;9.90;99.90
21811;DHT22;11067;48.788;9.208;2023-02-12T14:09:44;9.90;99.90
21811;DHT22;11067;48.788;9.208;2023-02-12T14:12:16;9.70;99.90
21811;DHT22;11067;48.788;9.208;2023-02-12T14:14:43;9.80;99.90
21811;DHT22;11067;48.788;9.208;2023-02-12T14:24:56;9.80;99.90
21811;DHT22;11067;48.788;9.208;2023-02-12T14:27:44;9.80;99.90
21811;DHT22;11067;48.788;9.208;2023-02-12T14:35:41;9.90;99.90
21811;DHT22;11067;48.788;9.208;2023-02-12T14:40:48;9.80;99.90
21811;DHT22;11067;48.788;9.208;2023-02-12T14:43:32;9.70;99.90
21811;DHT22;11067;48.788;9.208;2023-02-12T14:51:40;9.80;99.90
21811;DHT22;11067;48.788;9.208;2023-02-12T14:54:24;9.70;99.90
21811;DHT22;11067;48.788;9.208;2023-02-12T14:56:51;9.70;99.90
21811;DHT22;11067;48.788;9.208;2023-02-12T14:59:22;9.60;99.90
21811;DHT22;11067;48.788;9.208;2023-02-12T15:01:49;9.70;99.90
21811;DHT22;11067;48.788;9.208;2023-02-12T15:04:30;9.70;99.90
21811;DHT22;11067;48.788;9.208;2023-02-12T15:07:06;9.60;99.90
21811;DHT22;11067;48.788;9.208;2023-02-12T15:09:51;9.60;99.90
21811;DHT22;11067;48.788;9.208;2023-02-12T15:12:30;9.50;99.90
21811;DHT22;11067;48.788;9.208;2023-02-12T15:15:22;9.50;99.90
21811;DHT22;11067;48.788;9.208;2023-02-12T15:17:57;9.50;99.90
21811;DHT22;11067;48.788;9.208;2023-02-12T15:20:37;9.50;99.90
21811;DHT22;11067;48.788;9.208;2023-02-12T15:23:33;9.40;99.90
21811;DHT22;11067;48.788;9.208;2023-02-12T15:26:00;9.50;99.90
21811;DHT22;11067;48.788;9.208;2023-02-12T15:28:32;9.40;99.90
21811;DHT22;11067;48.788;9.208;2023-02-12T15:31:03;9.50;99.90
21811;DHT22;11067;48.788;9.208;2023-02-12T15:33:32;9.40;99.90
21811;DHT22;11067;48.788;9.208;2023-02-12T15:36:00;9.50;99.90
21811;DHT22;11067;48.788;9.208;2023-02-12T15:38:32;9.40;99.90
21811;DHT22;11067;48.788;9.208;2023-02-12T15:41:00;9.40;99.90
21811;DHT22;11067;48.788;9.208;2023-02-12T15:43:28;9.40;99.90
21811;DHT22;11067;48.788;9.208;2023-02-12T15:45:56;9.40;99.90
21811;DHT22;11067;48.788;9.208;2023-02-12T15:48:29;9.30;99.90
21811;DHT22;11067;48.788;9.208;2023-02-12T15:51:13;9.30;99.90
21811;DHT22;11067;48.788;9.208;2023-02-12T15:53:41;9.20;99.90
21811;DHT22;11067;48.788;9.208;2023-02-12T15:56:19;9.20;99.90
21811;DHT22;11067;48.788;9.208;2023-02-12T15:58:52;9.20;99.90
21811;DHT22;11067;48.788;9.208;2023-02-12T16:01:24;9.20;99.90
21811;DHT22;11067;48.788;9.208;2023-02-12T16:03:52;9.20;99.90
21811;DHT22;11067;48.788;9.208;2023-02-12T16:06:20;9.20;99.90
21811;DHT22;11067;48.788;9.208;2023-02-12T16:08:49;9.10;99.90
21811;DHT22;11067;48.788;9.208;2023-02-12T16:11:21;9.10;99.90
21811;DHT22;11067;48.788;9.208;2023-02-12T16:13:54;9.10;99.90
21811;DHT22;11067;48.788;9.208;2023-02-12T16:16:26;9.00;99.90
21811;DHT22;11067;48.788;9.208;2023-02-12T16:19:29;9.00;99.90
21811;DHT22;11067;48.788;9.208;2023-02-12T16:22:09;9.00;99.90
21811;DHT22;11067;48.788;9.208;2023-02-12T16:24:59;8.90;99.90
21811;DHT22;11067;48.788;9.208;2023-02-12T16:27:30;8.80;99.90
21811;DHT22;11067;48.788;9.208;2023-02-12T16:30:03;8.70;99.90
21811;DHT22;11067;48.788;9.208;2023-02-12T16:32:39;8.70;99.90
21811;DHT22;11067;48.788;9.208;2023-02-12T16:47:59;8.10;99.90
21811;DHT22;11067;48.788;9.208;2023-02-12T16:50:28;8.00;99.90
21811;DHT22;11067;48.788;9.208;2023-02-12T16:53:03;8.00;99.90
21811;DHT22;11067;48.788;9.208;2023-02-12T16:55:30;7.90;99.90
21811;DHT22;11067;48.788;9.208;2023-02-12T16:57:56;7.90;99.90
21811;DHT22;11067;48.788;9.208;2023-02-12T17:00:22;7.80;99.90
21811;DHT22;11067;48.788;9.208;2023-02-12T17:02:48;7.70;99.90
21811;DHT22;11067;48.788;9.208;2023-02-12T17:05:15;7.70;99.90
21811;DHT22;11067;48.788;9.208;2023-02-12T17:07:44;7.60;99.90
21811;DHT22;11067;48.788;9.208;2023-02-12T17:10:13;7.50;99.90
21811;DHT22;11067;48.788;9.208;2023-02-12T17:12:50;7.50;99.90
21811;DHT22;11067;48.788;9.208;2023-02-12T17:15:27;7.40;99.90
21811;DHT22;11067;48.788;9.208;2023-02-12T17:17:54;7.40;99.90
21811;DHT22;11067;48.788;9.208;2023-02-12T17:20:19;7.30;99.90
21811;DHT22;11067;48.788;9.208;2023-02-12T17:22:50;7.20;99.90
21811;DHT22;11067;48.788;9.208;2023-02-12T17:25:16;7.20;99.90
21811;DHT22;11067;48.788;9.208;2023-02-12T17:27:42;7.20;99.90
21811;DHT22;11067;48.788;9.208;2023-02-12T17:30:10;7.20;99.90
21811;DHT22;11067;48.788;9.208;2023-02-12T17:32:38;7.20;99.90
21811;DHT22;11067;48.788;9.208;2023-02-12T17:35:04;7.10;99.90
21811;DHT22;11067;48.788;9.208;2023-02-12T17:37:31;7.10;99.90
21811;DHT22;11067;48.788;9.208;2023-02-12T17:39:56;7.00;99.90
21811;DHT22;11067;48.788;9.208;2023-02-12T17:42:22;7.00;99.90
21811;DHT22;11067;48.788;9.208;2023-02-12T17:44:47;7.00;99.90
21811;DHT22;11067;48.788;9.208;2023-02-12T17:47:13;7.00;99.90
21811;DHT22;11067;48.788;9.208;2023-02-12T17:49:38;6.90;99.90
21811;DHT22;11067;48.788;9.208;2023-02-12T17:52:04;6.80;99.90
21811;DHT22;11067;48.788;9.208;2023-02-12T17:54:30;6.80;99.90
21811;DHT22;11067;48.788;9.208;2023-02-12T17:56:55;6.80;99.90
21811;DHT22;11067;48.788;9.208;2023-02-12T17:59:21;6.70;99.90
21811;DHT22;11067;48.788;9.208;2023-02-12T18:01:46;6.60;99.90
21811;DHT22;11067;48.788;9.208;2023-02-12T18:04:12;6.60;99.90
21811;DHT22;11067;48.788;9.208;2023-02-12T18:06:38;6.60;99.90
21811;DHT22;11067;48.788;9.208;2023-02-12T18:09:03;6.50;99.90
21811;DHT22;11067;48.788;9.208;2023-02-12T18:11:29;6.50;99.90
21811;DHT22;11067;48.788;9.208;2023-02-12T18:13:57;6.50;99.90
21811;DHT22;11067;48.788;9.208;2023-02-12T18:16:25;6.30;99.90
21811;DHT22;11067;48.788;9.208;2023-02-12T18:18:51;6.30;99.90
21811;DHT22;11067;48.788;9.208;2023-02-12T18:21:17;6.20;99.90
21811;DHT22;11067;48.788;9.208;2023-02-12T18:23:43;6.10;99.90
21811;DHT22;11067;48.788;9.208;2023-02-12T18:26:15;6.00;99.90
21811;DHT22;11067;48.788;9.208;2023-02-12T18:28:41;6.10;99.90
21811;DHT22;11067;48.788;9.208;2023-02-12T18:31:08;5.90;99.90
21811;DHT22;11067;48.788;9.208;2023-02-12T18:33:34;6.00;99.90
21811;DHT22;11067;48.788;9.208;2023-02-12T18:36:05;5.90;99.90
21811;DHT22;11067;48.788;9.208;2023-02-12T18:38:33;5.90;99.90